Grant, MI (49327)

9:47 PM EDT on May 24, 2015 (GMT -0400)
(MAC), Newaygo | | Change Station
CLOSE
Current Station
Personal Weather Station
Location: Newaygo, MI
Elevation: 640 ft
Nearby Weather Stations

Elev 640 ft 43.42 °N, 85.81 °W | Updated 1 minute ago

Rain
Rain
60.9 °F
Feels Like 60.9 °F
N
2.0
Wind Variable Wind from ESE
Gusts 4.0 mph

Today
High -- | Low -- °F
--% Chance of Precip.
Yesterday
High -- | Low -- °F
Precip. -- in
6:11 AM 9:09 PM
Waxing Crescent, 44% visible
Pressure 30.01 in
Visibility 10.0 miles
Clouds Overcast 7000 ft
Dew Point 59 °F
Humidity 92%
Rainfall 0.15 in
Snow Depth Not available.
UV 0 out of 12
Pollen 10.30 out of 12
Air Quality Not available.
Flu Activity Sporadic
METAR KFFX 250133Z AUTO 09009KT 10SM OVC070 16/14 A3001 RMK AO2 T01560142

More Conditions Fewer Conditions

Pressure 30.01 in
Visibility 10.0 miles
Clouds Overcast 7000 ft
Dew Point 59 °F
Humidity 92%
Rainfall 0.15 in
Snow Depth Not available.
UV 0 out of 12
Pollen 10.30 out of 12
Air Quality Not available.
Flu Activity Sporadic
METAR KFFX 250133Z AUTO 09009KT 10SM OVC070 16/14 A3001 RMK AO2 T01560142

More Conditions Fewer Conditions

10-Day Weather Forecast

Almanac

Astronomy

May. 24, 2015 Rise Set
Actual Time
Civil Twilight
Nautical Twilight
Astronomical Twilight
Moon
Length of Visible Light
Length of Day
Tomorrow will be .
, % of the Moon is Illuminated

Today's Extremes

State Highs State Lows

Community

WunderPhotos

Upload Photos

1,823,918 photos uploaded!

WunderBlogs® & News

Nearby

Air Quality

  Air Quality AQ Index Pollutant
Not available.

Snow Depth

Station Depth Elevation

Earthquake Activity

City Distance Mag. Time & Date
Minimum magnitude displayed is 2.5.

Coastal Water Temperatures

Place Temperature

Stations

Nearby Weather Stations

Station Location Temp. Windchill Dew Point Humidity Wind Precip. Elev Updated Type